< < Back
Terminal Aerodrome Forecast


Current Version              Previous Versions:   1  2  3  4  5  6  7  8  9  

Terminal Aerodrome Forecast

430
FTUS44 KBMX 260520
TAFBHM
TAF
KBHM 260520Z 2606/2706 VRB03KT P6SM SCT250
     FM261100 12004KT 5SM BR SCT004 SCT007 OVC015
     FM261500 15008KT P6SM BKN025
     FM261700 18008KT P6SM VCTS BKN040CB=

Latest METAR

832
SAUS70 KWBC 261500 RRB
MTRBHM
METAR KBHM 261453Z 18011KT 10SM BKN019 OVC026 24/21 A3019 RMK AO2 SLP217
T02390206 51005 $


USA.gov is the U.S. government's official web portal to all federal, state and local government web resources and services.